Alameda, Canada
Current Conditions -  °F | °C
As of 5:00 PM on Saturday 25 Oct 2014 (Local Time) from CYEN Reporting Station
Broken Clouds Broken Clouds  
Wind Chill: 52°   Ceiling: 23000
Heat Index: 52°   Visibility: 15mi
Dew Point: 30°   Wind: 6mph
Humidity: 44%   Direction: 110°ESE
Pressure: 29.97"   Gusts: NA
Location:  49.27°N, 102.28°W
Report Text: CYEN 252300Z 11005KT 15SM FEW120 BKN230 11/M01 A2997 RMK AS1CS5SLP168
Loading
Personal Weather Stations






























Interactive Weather Map
Tropical Storm Tracking
New forecast layout! Learn more

10-Day Weather Forecast

Advertisements
Track Severe Weather on mobile